Pagrindinis puslapis
METAR-TAF:

METAR-TAF

Oro uostai :

San Juan de los Morros, Venesuela

platuma: 09-55N, ilguma: 067-20W, Aukštis: 429 m

Dabartinis oras

Ataskaita buvo paskelbta 16 minutes, ne 12:02 UTC
Vėjas 3 kt iš Šiaurės/Šiaurės Rytų
Temperatūra 18°C
Drėgmė 83%
Slėgis 1015 hPa

METAR: SVJM 281202Z AUTO 02003KT NCD 18/15 Q1015

Laikas: 08:18 (12:18 UTC)


TAF: trūkstamas

Orai ataskaitas ir orų prognozės (METAR, TAF).

turimą stotys yra geltonos ir raudonos taškus žemėlapyje.

Perkelti pele per norėdami pamatyti stoties vardą.

Tada spustelėkite, norėdami matyti oro stebėjimo ir prognozės.

Norėdami pakeisti žemėlapį: spustelėkite ant žalios mygtukų su juodo kryžiaus žemyn,; žalią mygtuką su brūkšneliu, jei norite nutolinti; arba žalių rodyklių gretimoms žemėlapius.


METAR-TAF: